createdAt,value
2022-08-23T00:00:35.619Z,40.58
2022-08-23T00:01:39.358Z,40.79
2022-08-23T00:02:43.819Z,40.78
2022-08-23T00:03:46.483Z,40.60
2022-08-23T00:04:55.832Z,40.75
2022-08-23T00:06:14.453Z,41.01
2022-08-23T00:07:16.178Z,41.01
2022-08-23T00:08:17.695Z,41.15
2022-08-23T00:09:19.716Z,41.09
2022-08-23T00:10:21.263Z,41.09
2022-08-23T00:11:26.721Z,41.00
2022-08-23T00:12:28.320Z,41.05
2022-08-23T00:13:47.434Z,40.95
2022-08-23T00:14:53.779Z,41.06
2022-08-23T00:15:55.763Z,40.87
2022-08-23T00:16:57.598Z,40.84
2022-08-23T00:18:00.619Z,40.74
2022-08-23T00:19:03.407Z,40.78
2022-08-23T00:20:09.144Z,40.86
2022-08-23T00:21:11.483Z,40.85
2022-08-23T00:22:13.042Z,40.75
2022-08-23T00:23:16.084Z,40.78
2022-08-23T00:24:17.716Z,40.73
2022-08-23T00:25:19.267Z,40.74
2022-08-23T00:26:20.812Z,40.70
2022-08-23T00:27:22.317Z,40.68
2022-08-23T00:28:23.972Z,40.86
2022-08-23T00:29:27.540Z,40.79
2022-08-23T00:30:29.103Z,40.78
2022-08-23T00:31:31.082Z,40.92
2022-08-23T00:32:33.443Z,40.74
2022-08-23T00:33:35.225Z,40.85
2022-08-23T00:34:36.850Z,40.78
2022-08-23T00:35:38.788Z,40.99
2022-08-23T00:36:40.487Z,40.95
2022-08-23T00:37:42.069Z,40.95
2022-08-23T00:38:47.915Z,41.00
2022-08-23T00:39:49.517Z,41.11
2022-08-23T00:40:51.583Z,41.13
2022-08-23T00:41:53.341Z,41.28
2022-08-23T00:43:18.001Z,41.23
2022-08-23T00:44:42.998Z,41.44
2022-08-23T00:46:06.321Z,41.48
2022-08-23T00:47:26.371Z,41.44
2022-08-23T00:48:27.883Z,41.41
2022-08-23T00:49:29.950Z,41.50
2022-08-23T00:50:35.911Z,41.54
2022-08-23T00:51:46.851Z,41.58
2022-08-23T00:52:57.958Z,41.53
2022-08-23T00:54:00.650Z,41.64
2022-08-23T00:55:02.210Z,41.60
2022-08-23T00:56:04.143Z,41.82
2022-08-23T00:57:07.009Z,41.79
2022-08-23T00:58:08.951Z,41.77
2022-08-23T00:59:12.118Z,41.76
2022-08-23T01:00:14.398Z,41.88
2022-08-23T01:01:16.181Z,41.66
2022-08-23T01:02:19.535Z,41.76
2022-08-23T01:03:22.228Z,42.00
2022-08-23T01:04:24.260Z,42.00
2022-08-23T01:05:26.880Z,42.21
2022-08-23T01:06:32.074Z,42.17
2022-08-23T01:07:41.443Z,42.24
2022-08-23T01:08:49.818Z,42.43
2022-08-23T01:09:51.512Z,42.29
2022-08-23T01:11:08.650Z,42.30
2022-08-23T01:12:16.238Z,42.16
2022-08-23T01:13:27.115Z,42.21
2022-08-23T01:14:41.671Z,42.18
2022-08-23T01:15:47.261Z,42.10
2022-08-23T01:16:48.752Z,42.06
2022-08-23T01:17:53.922Z,42.41
2022-08-23T01:18:55.452Z,42.17
2022-08-23T01:20:01.609Z,42.16
2022-08-23T01:21:23.258Z,42.37
2022-08-23T01:22:34.359Z,42.64
2022-08-23T01:23:39.583Z,42.70
2022-08-23T01:25:05.940Z,42.63
2022-08-23T01:26:04.048Z,42.27
2022-08-23T01:27:05.784Z,42.48
2022-08-23T01:28:07.374Z,42.64
2022-08-23T01:29:08.970Z,42.68
2022-08-23T01:30:11.538Z,42.79
2022-08-23T01:31:13.216Z,42.70
2022-08-23T01:32:14.757Z,42.86
2022-08-23T01:33:16.454Z,42.77
2022-08-23T01:34:18.689Z,42.94
2022-08-23T01:36:27.638Z,42.77
2022-08-23T01:37:29.653Z,42.70
2022-08-23T01:38:32.801Z,42.84
2022-08-23T01:39:35.383Z,43.05
2022-08-23T01:40:38.989Z,42.96
2022-08-23T01:41:41.182Z,43.24
2022-08-23T01:42:43.462Z,43.11
2022-08-23T01:43:47.015Z,43.07
2022-08-23T01:44:50.459Z,43.26
2022-08-23T01:45:52.564Z,42.83
2022-08-23T01:46:57.865Z,43.29
2022-08-23T01:47:59.995Z,43.33
2022-08-23T01:49:06.481Z,43.14
2022-08-23T01:50:09.910Z,43.38
2022-08-23T01:51:11.941Z,43.37
2022-08-23T01:52:15.334Z,43.28
2022-08-23T01:53:16.879Z,42.97
2022-08-23T01:54:23.194Z,43.14
2022-08-23T01:55:24.940Z,43.01
2022-08-23T01:56:28.104Z,42.91
2022-08-23T01:57:42.678Z,43.00
2022-08-23T01:58:47.779Z,43.40
2022-08-23T01:59:49.385Z,43.34
2022-08-23T02:00:50.958Z,43.45
2022-08-23T02:01:53.669Z,43.30
2022-08-23T02:02:56.328Z,43.68
2022-08-23T02:04:04.733Z,43.54
2022-08-23T02:05:07.046Z,43.57
2022-08-23T02:06:08.642Z,43.74
2022-08-23T02:07:10.609Z,43.67
2022-08-23T02:08:41.406Z,43.77
2022-08-23T02:09:43.059Z,43.98
2022-08-23T02:10:44.908Z,43.97
2022-08-23T02:11:46.534Z,44.01
2022-08-23T02:12:48.108Z,43.78
2022-08-23T02:13:51.967Z,44.24
2022-08-23T02:14:53.886Z,44.18
2022-08-23T02:15:59.623Z,44.36
2022-08-23T02:17:04.403Z,44.44
2022-08-23T02:18:10.873Z,44.34
2022-08-23T02:19:16.857Z,44.02
2022-08-23T02:20:19.403Z,44.26
2022-08-23T02:21:20.968Z,44.53
2022-08-23T02:22:22.586Z,44.37
2022-08-23T02:23:24.339Z,44.18
2022-08-23T02:24:26.750Z,44.51
2022-08-23T02:25:28.374Z,44.43
2022-08-23T02:26:31.504Z,44.26
2022-08-23T02:27:33.404Z,44.50
2022-08-23T02:28:35.003Z,44.62
2022-08-23T02:29:39.283Z,44.47
2022-08-23T02:30:44.550Z,44.81
2022-08-23T02:31:46.889Z,44.82
2022-08-23T02:32:48.410Z,44.84
2022-08-23T02:33:49.947Z,45.05
2022-08-23T02:35:04.599Z,44.90
2022-08-23T02:36:08.487Z,44.85
2022-08-23T02:37:11.071Z,45.00
2022-08-23T02:38:12.746Z,44.99
2022-08-23T02:39:14.687Z,44.84
2022-08-23T02:40:16.705Z,44.71
2022-08-23T02:41:18.306Z,44.89
2022-08-23T02:42:20.171Z,44.78
2022-08-23T02:43:21.898Z,44.68
2022-08-23T02:44:24.404Z,44.91
2022-08-23T02:45:26.858Z,44.82
2022-08-23T02:46:28.693Z,45.24
2022-08-23T02:47:31.343Z,45.01
2022-08-23T02:48:43.527Z,44.93
2022-08-23T02:49:46.152Z,45.28
2022-08-23T02:50:47.754Z,44.97
2022-08-23T02:51:49.300Z,45.32
2022-08-23T02:52:51.751Z,45.14
2022-08-23T02:53:53.278Z,45.10
2022-08-23T02:54:58.265Z,45.42
2022-08-23T02:56:00.180Z,45.22
2022-08-23T02:57:01.746Z,45.24
2022-08-23T02:58:05.482Z,45.32
2022-08-23T02:59:07.234Z,45.54
2022-08-23T03:00:10.243Z,45.63
2022-08-23T03:01:22.892Z,45.82
2022-08-23T03:02:26.545Z,45.61
2022-08-23T03:03:28.219Z,45.97
2022-08-23T03:04:29.727Z,45.80
2022-08-23T03:05:31.683Z,45.88
2022-08-23T03:06:34.459Z,45.76
2022-08-23T03:07:36.793Z,46.05
2022-08-23T03:08:38.422Z,46.11
2022-08-23T03:09:43.252Z,45.83
2022-08-23T03:10:45.445Z,45.88
2022-08-23T03:11:47.316Z,45.99
2022-08-23T03:12:53.808Z,45.85
2022-08-23T03:13:58.716Z,45.70
2022-08-23T03:15:00.261Z,46.02
2022-08-23T03:16:01.960Z,46.00
2022-08-23T03:17:04.060Z,45.85
2022-08-23T03:18:05.747Z,45.79
2022-08-23T03:19:07.519Z,45.62
2022-08-23T03:20:09.348Z,45.62
2022-08-23T03:21:11.342Z,45.98
2022-08-23T03:22:13.223Z,46.04
2022-08-23T03:23:14.738Z,45.83
2022-08-23T03:24:16.294Z,45.94
2022-08-23T03:25:18.122Z,46.06
2022-08-23T03:26:44.522Z,45.80
2022-08-23T03:27:46.928Z,46.05
2022-08-23T03:28:48.655Z,45.95
2022-08-23T03:29:50.987Z,45.96
2022-08-23T03:30:52.918Z,46.15
2022-08-23T03:31:54.548Z,46.22
2022-08-23T03:32:56.426Z,46.31
2022-08-23T03:33:58.627Z,46.12
2022-08-23T03:35:00.288Z,46.09
2022-08-23T03:36:02.428Z,46.24
2022-08-23T03:37:04.975Z,46.43
2022-08-23T03:38:06.995Z,46.28
2022-08-23T03:39:11.118Z,46.37
2022-08-23T03:40:12.958Z,46.46
2022-08-23T03:41:14.738Z,46.27
2022-08-23T03:42:16.430Z,46.46
2022-08-23T03:43:21.009Z,46.37
2022-08-23T03:44:22.647Z,46.47
2022-08-23T03:45:25.185Z,46.36
2022-08-23T03:46:29.057Z,46.55
2022-08-23T03:47:35.210Z,46.47
2022-08-23T03:48:37.564Z,46.45
2022-08-23T03:49:39.300Z,46.68
2022-08-23T03:50:40.841Z,46.22
2022-08-23T03:51:42.478Z,46.48
2022-08-23T03:52:44.502Z,46.65
2022-08-23T03:53:47.821Z,46.65
2022-08-23T03:54:49.363Z,46.78
2022-08-23T03:55:51.804Z,46.71
2022-08-23T03:56:59.726Z,46.83
2022-08-23T03:58:03.328Z,46.94
2022-08-23T03:59:06.151Z,46.72
2022-08-23T04:00:08.361Z,47.03
2022-08-23T04:01:15.663Z,47.07
2022-08-23T04:02:17.723Z,47.12
2022-08-23T04:03:19.387Z,47.16
2022-08-23T04:04:35.568Z,46.84
2022-08-23T04:05:57.403Z,47.07
2022-08-23T04:06:59.083Z,46.90
2022-08-23T04:08:06.184Z,47.01
2022-08-23T04:09:07.761Z,47.47
2022-08-23T04:10:09.646Z,47.47
2022-08-23T04:11:13.356Z,47.51
2022-08-23T04:12:24.326Z,47.35
2022-08-23T04:13:28.632Z,47.22
2022-08-23T04:14:30.405Z,47.26
2022-08-23T04:15:31.992Z,47.45
2022-08-23T04:16:37.484Z,47.51
2022-08-23T04:17:40.593Z,47.44
2022-08-23T04:18:42.305Z,47.14
2022-08-23T04:19:43.877Z,47.20
2022-08-23T04:20:46.895Z,47.22
2022-08-23T04:21:49.959Z,47.46
2022-08-23T04:22:52.285Z,47.24
2022-08-23T04:23:54.583Z,47.19
2022-08-23T04:24:56.177Z,47.42
2022-08-23T04:25:58.070Z,47.45
2022-08-23T04:27:00.472Z,47.56
2022-08-23T04:28:02.931Z,47.40
2022-08-23T04:29:04.938Z,47.83
2022-08-23T04:30:07.256Z,47.67
2022-08-23T04:31:10.225Z,47.80
2022-08-23T04:32:14.769Z,47.66
2022-08-23T04:33:31.795Z,47.79
2022-08-23T04:34:34.319Z,47.54
2022-08-23T04:35:35.839Z,47.49
2022-08-23T04:36:39.161Z,47.69
2022-08-23T04:37:41.513Z,47.84
2022-08-23T04:38:43.370Z,47.62
2022-08-23T04:40:05.769Z,47.65
2022-08-23T04:41:32.640Z,47.90
2022-08-23T04:42:34.570Z,48.02
2022-08-23T04:43:36.234Z,48.08
2022-08-23T04:44:37.811Z,48.01
2022-08-23T04:45:40.614Z,47.97
2022-08-23T04:46:48.652Z,47.88
2022-08-23T04:47:51.455Z,47.97
2022-08-23T04:48:54.086Z,48.00
2022-08-23T04:49:55.695Z,47.96
2022-08-23T04:50:57.347Z,47.90
2022-08-23T04:51:58.896Z,48.11
2022-08-23T04:53:00.961Z,48.09
2022-08-23T04:54:04.098Z,47.95
2022-08-23T04:55:36.490Z,48.03
2022-08-23T04:56:42.127Z,48.08
2022-08-23T04:57:45.783Z,48.00
2022-08-23T04:58:51.838Z,48.33
2022-08-23T04:59:53.739Z,48.41
2022-08-23T05:00:59.001Z,48.29
2022-08-23T05:02:02.282Z,48.45
2022-08-23T05:03:03.968Z,48.55
2022-08-23T05:04:05.527Z,48.29
2022-08-23T05:05:09.362Z,48.33
2022-08-23T05:06:16.829Z,48.46
2022-08-23T05:07:18.530Z,48.52
2022-08-23T05:08:20.378Z,48.49
2022-08-23T05:09:24.095Z,48.40
2022-08-23T05:10:26.030Z,48.62
2022-08-23T05:11:29.227Z,48.57
2022-08-23T05:12:31.151Z,48.64
2022-08-23T05:13:34.783Z,48.71
2022-08-23T05:14:38.120Z,48.69
2022-08-23T05:15:40.673Z,48.53
2022-08-23T05:16:42.278Z,48.72
2022-08-23T05:17:44.963Z,48.77
2022-08-23T05:18:46.651Z,48.70
2022-08-23T05:19:48.388Z,48.64
2022-08-23T05:20:50.376Z,48.55
2022-08-23T05:21:56.374Z,48.34
2022-08-23T05:23:03.673Z,48.79
2022-08-23T05:24:07.614Z,48.48
2022-08-23T05:25:15.407Z,48.57
2022-08-23T05:26:17.327Z,48.38
2022-08-23T05:27:19.444Z,48.53
2022-08-23T05:28:21.946Z,48.63
2022-08-23T05:29:23.551Z,48.58
2022-08-23T05:30:26.188Z,48.65
2022-08-23T05:31:29.435Z,48.48
2022-08-23T05:32:36.843Z,48.77
2022-08-23T05:33:39.483Z,48.52
2022-08-23T05:34:41.180Z,48.53
2022-08-23T05:35:45.276Z,48.58
2022-08-23T05:36:48.143Z,48.72
2022-08-23T05:37:59.753Z,48.72
2022-08-23T05:39:01.411Z,48.60
2022-08-23T05:40:06.746Z,48.81
2022-08-23T05:41:15.975Z,48.71
2022-08-23T05:42:22.586Z,48.81
2022-08-23T05:43:28.935Z,48.61
2022-08-23T05:44:31.941Z,48.72
2022-08-23T05:45:39.138Z,48.64
2022-08-23T05:46:41.796Z,48.83
2022-08-23T05:48:07.609Z,48.90
2022-08-23T05:49:21.373Z,48.85
2022-08-23T05:50:23.870Z,48.76
2022-08-23T05:51:27.909Z,48.92
2022-08-23T05:52:29.455Z,49.12
2022-08-23T05:53:31.368Z,49.00
2022-08-23T05:54:33.194Z,49.04
2022-08-23T05:55:54.977Z,49.15
2022-08-23T05:56:59.353Z,49.63
2022-08-23T05:58:01.084Z,49.37
2022-08-23T05:59:05.003Z,49.27
2022-08-23T06:00:08.587Z,49.15
2022-08-23T06:01:20.407Z,49.44
2022-08-23T06:02:22.179Z,49.43
2022-08-23T06:03:23.747Z,49.49
2022-08-23T06:04:26.842Z,49.61
2022-08-23T06:05:29.361Z,49.71
2022-08-23T06:06:36.914Z,49.65
2022-08-23T06:07:39.519Z,49.61
2022-08-23T06:08:41.315Z,49.29
2022-08-23T06:09:43.038Z,49.07
2022-08-23T06:10:45.588Z,48.99
2022-08-23T06:11:58.753Z,48.94
2022-08-23T06:13:01.682Z,49.03
2022-08-23T06:14:04.343Z,48.54
2022-08-23T06:15:06.179Z,48.33
2022-08-23T06:16:14.372Z,48.57
2022-08-23T06:17:18.086Z,48.33
2022-08-23T06:18:20.939Z,48.41
2022-08-23T06:19:23.866Z,48.15
2022-08-23T06:20:43.974Z,47.91
2022-08-23T06:21:52.275Z,47.72
2022-08-23T06:22:58.998Z,47.82
2022-08-23T06:24:00.874Z,47.92
2022-08-23T06:25:04.353Z,48.03
2022-08-23T06:26:26.048Z,47.98
2022-08-23T06:27:28.612Z,47.93
2022-08-23T06:28:30.451Z,47.72
2022-08-23T06:29:32.260Z,47.91
2022-08-23T06:30:56.191Z,47.60
2022-08-23T06:32:09.624Z,48.01
2022-08-23T06:33:18.409Z,48.03
2022-08-23T06:34:52.287Z,47.91
2022-08-23T06:36:32.630Z,47.48
2022-08-23T06:37:47.837Z,47.58
2022-08-23T06:39:09.111Z,47.53
2022-08-23T06:40:29.284Z,47.75
2022-08-23T06:41:49.382Z,47.23
2022-08-23T06:43:01.603Z,47.59
2022-08-23T06:44:21.737Z,47.47
2022-08-23T06:45:34.832Z,47.43
2022-08-23T06:46:38.459Z,47.45
2022-08-23T06:47:40.272Z,47.28
2022-08-23T06:48:42.446Z,47.28
2022-08-23T06:49:51.076Z,47.35
2022-08-23T06:51:27.327Z,47.67
2022-08-23T06:52:49.701Z,47.45
2022-08-23T06:54:06.567Z,47.52
2022-08-23T06:55:23.280Z,47.28
2022-08-23T06:56:35.465Z,47.28
2022-08-23T06:57:43.688Z,46.89
2022-08-23T06:59:13.719Z,46.87
2022-08-23T07:00:34.275Z,47.18
2022-08-23T07:01:52.677Z,46.96
2022-08-23T07:03:14.179Z,47.20
2022-08-23T07:04:35.734Z,46.86
2022-08-23T07:06:03.674Z,46.82
2022-08-23T07:07:11.393Z,46.08
2022-08-23T07:08:13.524Z,46.27
2022-08-23T07:09:15.535Z,46.62
2022-08-23T07:10:17.501Z,46.44
2022-08-23T07:11:19.628Z,46.03
2022-08-23T07:12:22.096Z,46.18
2022-08-23T07:13:23.763Z,46.20
2022-08-23T07:14:25.401Z,46.42
2022-08-23T07:15:27.016Z,46.33
2022-08-23T07:16:34.949Z,46.36
2022-08-23T07:17:36.578Z,46.35
2022-08-23T07:18:38.546Z,46.21
2022-08-23T07:19:41.415Z,46.17
2022-08-23T07:20:42.928Z,46.17
2022-08-23T07:21:45.895Z,46.31
2022-08-23T07:22:49.323Z,46.28
2022-08-23T07:23:51.560Z,45.68
2022-08-23T07:24:53.569Z,45.40
2022-08-23T07:25:57.558Z,44.96
2022-08-23T07:27:06.184Z,45.28
2022-08-23T07:28:11.702Z,45.71
2022-08-23T07:29:14.340Z,45.70
2022-08-23T07:30:15.903Z,45.53
2022-08-23T07:31:22.783Z,45.52
2022-08-23T07:32:24.347Z,45.19
2022-08-23T07:33:29.226Z,45.05
2022-08-23T07:34:42.176Z,44.70
2022-08-23T07:35:46.626Z,44.82
2022-08-23T07:36:48.347Z,44.96
2022-08-23T07:37:49.852Z,45.13
2022-08-23T07:38:51.902Z,44.97
2022-08-23T07:39:56.311Z,44.66
2022-08-23T07:41:00.478Z,44.38
2022-08-23T07:42:02.279Z,44.63
2022-08-23T07:43:24.083Z,44.68
2022-08-23T07:44:27.218Z,44.98
2022-08-23T07:45:29.092Z,45.14
2022-08-23T07:46:34.483Z,44.36
2022-08-23T07:47:37.003Z,44.54
2022-08-23T07:48:53.601Z,44.56
2022-08-23T07:50:02.687Z,44.53
2022-08-23T07:51:07.931Z,44.43
2022-08-23T07:52:12.078Z,44.73
2022-08-23T07:53:14.014Z,44.61
2022-08-23T07:54:18.170Z,44.50
2022-08-23T07:55:26.598Z,44.55
2022-08-23T07:56:29.086Z,44.47
2022-08-23T07:57:39.236Z,44.39
2022-08-23T07:59:06.918Z,44.35
2022-08-23T08:00:22.557Z,44.23
2022-08-23T08:01:35.272Z,44.25
2022-08-23T08:02:36.932Z,44.14
2022-08-23T08:03:39.548Z,44.08
2022-08-23T08:04:46.911Z,44.52
2022-08-23T08:05:48.809Z,44.23
2022-08-23T08:07:10.498Z,43.75
2022-08-23T08:08:16.787Z,43.68
2022-08-23T08:09:20.233Z,44.05
2022-08-23T08:10:22.327Z,43.96
2022-08-23T08:11:25.475Z,43.61
2022-08-23T08:12:28.720Z,44.03
2022-08-23T08:13:35.579Z,44.09
2022-08-23T08:14:37.421Z,43.74
2022-08-23T08:15:40.379Z,43.78
2022-08-23T08:16:45.668Z,43.65
2022-08-23T08:17:53.337Z,43.97
2022-08-23T08:18:55.283Z,43.22
2022-08-23T08:20:15.447Z,43.56
2022-08-23T08:21:35.626Z,43.54
2022-08-23T08:22:48.533Z,43.77
2022-08-23T08:23:58.677Z,43.06
2022-08-23T08:25:15.671Z,42.81
2022-08-23T08:26:17.511Z,43.13
2022-08-23T08:27:27.125Z,43.03
2022-08-23T08:28:29.461Z,42.39
2022-08-23T08:29:31.394Z,42.36
2022-08-23T08:30:32.921Z,42.41
2022-08-23T08:31:38.340Z,42.67
2022-08-23T08:32:46.961Z,42.65
2022-08-23T08:33:48.960Z,42.29
2022-08-23T08:34:50.842Z,42.53
2022-08-23T08:35:57.870Z,42.53
2022-08-23T08:37:02.770Z,42.93
2022-08-23T08:38:05.610Z,42.39
2022-08-23T08:39:08.167Z,42.57
2022-08-23T08:40:12.382Z,42.30
2022-08-23T08:41:16.449Z,42.09
2022-08-23T08:42:18.151Z,42.09
2022-08-23T08:43:27.300Z,42.34
2022-08-23T08:44:41.014Z,42.27
2022-08-23T08:45:58.862Z,42.49
2022-08-23T08:47:03.419Z,42.32
2022-08-23T08:48:13.499Z,41.77
2022-08-23T08:49:31.970Z,41.65
2022-08-23T08:50:36.731Z,42.20
2022-08-23T08:51:39.116Z,42.63
2022-08-23T08:52:45.251Z,42.28
2022-08-23T08:53:55.454Z,42.59
2022-08-23T08:55:26.736Z,41.91
2022-08-23T08:56:32.691Z,41.69
2022-08-23T08:58:04.494Z,41.44
2022-08-23T08:59:07.178Z,40.96
2022-08-23T09:00:14.616Z,41.22
2022-08-23T09:01:19.102Z,40.60
2022-08-23T09:02:32.850Z,40.77
2022-08-23T09:03:37.992Z,40.34
2022-08-23T09:04:45.635Z,40.23
2022-08-23T09:06:07.493Z,40.73
2022-08-23T09:07:27.939Z,40.07
2022-08-23T09:08:52.126Z,40.44
2022-08-23T09:09:56.697Z,40.30
2022-08-23T09:11:06.558Z,40.52
2022-08-23T09:12:25.542Z,40.28
2022-08-23T09:13:27.597Z,39.73
2022-08-23T09:14:38.550Z,39.92
2022-08-23T09:15:41.027Z,39.70
2022-08-23T09:16:55.303Z,39.65
2022-08-23T09:17:58.590Z,39.88
2022-08-23T09:19:01.184Z,40.41
2022-08-23T09:20:04.152Z,40.30
2022-08-23T09:21:06.818Z,40.59
2022-08-23T09:22:13.370Z,40.16
2022-08-23T09:23:19.849Z,40.27
2022-08-23T09:24:24.336Z,40.20
2022-08-23T09:25:33.792Z,39.57
2022-08-23T09:26:41.224Z,39.46
2022-08-23T09:27:43.603Z,39.61
2022-08-23T09:28:45.877Z,38.84
2022-08-23T09:29:57.609Z,38.67
2022-08-23T09:30:59.608Z,38.30
2022-08-23T09:32:02.659Z,38.60
2022-08-23T09:33:20.559Z,38.71
2022-08-23T09:34:23.316Z,38.72
2022-08-23T09:35:37.770Z,38.29
2022-08-23T09:36:41.524Z,38.48
2022-08-23T09:37:52.105Z,39.04
2022-08-23T09:39:17.028Z,38.38
2022-08-23T09:40:20.391Z,38.49
2022-08-23T09:41:25.750Z,38.10
2022-08-23T09:42:29.734Z,38.26
2022-08-23T09:43:31.618Z,37.51
2022-08-23T09:44:40.411Z,37.64
2022-08-23T09:45:47.334Z,37.73
2022-08-23T09:46:48.859Z,37.84
2022-08-23T09:47:54.264Z,37.73
2022-08-23T09:48:59.033Z,37.84
2022-08-23T09:50:26.187Z,37.43
2022-08-23T09:51:37.708Z,37.46
2022-08-23T09:52:43.129Z,38.02
2022-08-23T09:53:46.073Z,37.29
2022-08-23T09:54:57.452Z,37.39
2022-08-23T09:55:59.178Z,37.09
2022-08-23T09:57:05.117Z,37.09
2022-08-23T09:58:07.569Z,37.08
2022-08-23T09:59:27.560Z,37.40
2022-08-23T10:00:36.700Z,37.13
2022-08-23T10:01:39.516Z,37.32
2022-08-23T10:02:47.612Z,37.38
2022-08-23T10:04:08.627Z,36.43
2022-08-23T10:05:20.006Z,36.33
2022-08-23T10:06:31.036Z,36.20
2022-08-23T10:07:35.375Z,36.71
2022-08-23T10:08:42.999Z,36.39
2022-08-23T10:09:45.677Z,36.87
2022-08-23T10:10:50.809Z,36.47
2022-08-23T10:11:57.403Z,36.43
2022-08-23T10:12:59.153Z,36.96
2022-08-23T10:14:01.844Z,36.64
2022-08-23T10:15:04.233Z,36.13
2022-08-23T10:16:29.202Z,36.16
2022-08-23T10:17:41.664Z,36.52
2022-08-23T10:18:55.329Z,36.28
2022-08-23T10:20:05.963Z,35.74
2022-08-23T10:21:07.629Z,35.67
2022-08-23T10:22:28.498Z,35.86
2022-08-23T10:23:48.251Z,35.34
2022-08-23T10:24:53.005Z,35.66
2022-08-23T10:25:55.355Z,35.80
2022-08-23T10:27:34.038Z,35.28
2022-08-23T10:28:54.477Z,35.61
2022-08-23T10:30:01.282Z,35.43
2022-08-23T10:31:11.589Z,35.56
2022-08-23T10:32:33.076Z,35.41
2022-08-23T10:33:38.951Z,35.20
2022-08-23T10:34:50.745Z,34.30
2022-08-23T10:35:58.628Z,34.53
2022-08-23T10:37:12.991Z,34.13
2022-08-23T10:38:17.605Z,33.81
2022-08-23T10:39:24.705Z,33.85
2022-08-23T10:40:30.521Z,33.87
2022-08-23T10:41:38.784Z,34.33
2022-08-23T10:42:43.473Z,33.73
2022-08-23T10:43:53.080Z,33.87
2022-08-23T10:44:58.833Z,33.99
2022-08-23T10:46:00.872Z,33.50
2022-08-23T10:47:18.146Z,33.13
2022-08-23T10:48:28.230Z,33.76
2022-08-23T10:49:30.341Z,33.78
2022-08-23T10:50:55.482Z,33.53
2022-08-23T10:51:59.259Z,33.26
2022-08-23T10:53:02.551Z,34.03
2022-08-23T10:54:07.963Z,33.12
2022-08-23T10:55:24.447Z,32.78
2022-08-23T10:56:26.865Z,32.91
2022-08-23T10:57:33.394Z,32.55
2022-08-23T10:58:47.381Z,32.50
2022-08-23T10:59:49.485Z,32.45
2022-08-23T11:00:52.278Z,33.30
2022-08-23T11:01:59.042Z,32.06
2022-08-23T11:03:01.637Z,32.40
2022-08-23T11:04:15.035Z,31.91
2022-08-23T11:05:38.713Z,31.57
2022-08-23T11:06:48.274Z,31.79
2022-08-23T11:07:56.953Z,31.37
2022-08-23T11:09:02.528Z,32.03
2022-08-23T11:10:04.010Z,31.49
2022-08-23T11:11:06.976Z,31.85
2022-08-23T11:12:19.724Z,31.87
2022-08-23T11:13:22.768Z,31.09
2022-08-23T11:14:36.602Z,31.05
2022-08-23T11:15:41.382Z,31.05
2022-08-23T11:16:47.154Z,31.07
2022-08-23T11:17:57.845Z,30.77
2022-08-23T11:19:00.838Z,30.63
2022-08-23T11:20:10.616Z,31.02
2022-08-23T11:21:18.936Z,30.80
2022-08-23T11:22:30.167Z,30.61
2022-08-23T11:23:36.106Z,30.48
2022-08-23T11:24:48.986Z,30.55
2022-08-23T11:25:50.635Z,30.29
2022-08-23T11:26:52.504Z,30.57
2022-08-23T11:28:12.399Z,30.76
2022-08-23T11:29:23.385Z,30.75
2022-08-23T11:30:35.534Z,30.84
2022-08-23T11:31:41.110Z,31.09
2022-08-23T11:32:43.086Z,31.17
2022-08-23T11:33:46.839Z,31.27
2022-08-23T11:34:49.823Z,31.23
2022-08-23T11:36:09.887Z,31.20
2022-08-23T11:37:18.854Z,31.68
2022-08-23T11:38:40.328Z,31.48
2022-08-23T11:40:00.057Z,30.90
2022-08-23T11:41:19.707Z,30.79
2022-08-23T11:42:21.547Z,31.12
2022-08-23T11:43:31.627Z,31.00
2022-08-23T11:44:40.490Z,31.15
2022-08-23T11:45:46.274Z,31.28
2022-08-23T11:46:49.248Z,31.41
2022-08-23T11:48:03.390Z,31.38
2022-08-23T11:49:23.596Z,30.97
2022-08-23T11:50:26.193Z,31.05
2022-08-23T11:51:37.279Z,31.39
2022-08-23T11:52:49.838Z,30.94
2022-08-23T11:53:51.312Z,30.79
2022-08-23T11:55:05.220Z,30.62
2022-08-23T11:56:09.655Z,30.58
2022-08-23T11:57:11.151Z,30.53
2022-08-23T11:58:18.988Z,30.53
2022-08-23T11:59:34.885Z,30.58
2022-08-23T12:00:57.539Z,30.03
2022-08-23T12:01:59.396Z,30.70
2022-08-23T12:03:05.163Z,31.14
2022-08-23T12:04:12.302Z,30.86
2022-08-23T12:05:22.796Z,30.29
2022-08-23T12:06:27.337Z,30.22
2022-08-23T12:07:42.800Z,29.64
2022-08-23T12:08:44.303Z,30.22
2022-08-23T12:09:49.882Z,30.57
2022-08-23T12:10:51.373Z,30.22
2022-08-23T12:11:52.863Z,30.20
2022-08-23T12:13:14.330Z,29.92
2022-08-23T12:14:31.152Z,29.47
2022-08-23T12:15:56.417Z,30.21
2022-08-23T12:17:03.210Z,30.08
2022-08-23T12:18:07.218Z,29.21
2022-08-23T12:19:10.913Z,29.07
2022-08-23T12:20:20.475Z,29.42
2022-08-23T12:21:23.101Z,29.57
2022-08-23T12:22:25.757Z,29.86
2022-08-23T12:23:27.419Z,29.56
2022-08-23T12:24:30.776Z,30.07
2022-08-23T12:25:32.367Z,29.70
2022-08-23T12:26:49.583Z,29.69
2022-08-23T12:28:11.748Z,29.54
2022-08-23T12:29:23.247Z,29.48
2022-08-23T12:30:25.808Z,29.25
2022-08-23T12:31:35.514Z,29.42
2022-08-23T12:32:40.091Z,29.17
2022-08-23T12:33:47.846Z,29.16
2022-08-23T12:34:51.937Z,28.92
2022-08-23T12:36:03.818Z,28.89
2022-08-23T12:37:15.680Z,29.21
2022-08-23T12:38:17.141Z,29.54
2022-08-23T12:39:32.070Z,29.15
2022-08-23T12:40:36.299Z,28.95
2022-08-23T12:41:55.755Z,29.12
2022-08-23T12:43:23.609Z,28.25
2022-08-23T12:44:26.460Z,29.13
2022-08-23T12:45:28.483Z,28.99
2022-08-23T12:46:35.519Z,29.14
2022-08-23T12:47:40.971Z,28.85
2022-08-23T12:48:47.259Z,28.70
2022-08-23T12:49:55.959Z,29.01
2022-08-23T12:50:57.503Z,28.50
2022-08-23T12:52:00.100Z,28.40
2022-08-23T12:53:03.403Z,28.50
2022-08-23T12:54:14.889Z,29.04
2022-08-23T12:55:18.480Z,29.04
2022-08-23T12:56:28.086Z,28.56
2022-08-23T12:57:35.214Z,28.65
2022-08-23T12:58:37.903Z,28.19
2022-08-23T12:59:42.491Z,28.61
2022-08-23T13:00:54.334Z,28.66
2022-08-23T13:01:55.990Z,28.64
2022-08-23T13:03:04.690Z,28.59
2022-08-23T13:04:08.483Z,28.67
2022-08-23T13:05:13.645Z,28.68
2022-08-23T13:06:16.999Z,28.44
2022-08-23T13:07:21.352Z,28.03
2022-08-23T13:08:27.309Z,27.86
2022-08-23T13:09:37.130Z,27.84
2022-08-23T13:10:39.703Z,27.78
2022-08-23T13:11:41.433Z,27.27
2022-08-23T13:12:42.938Z,27.59
2022-08-23T13:13:44.492Z,27.87
2022-08-23T13:14:47.374Z,28.07
2022-08-23T13:15:50.636Z,28.63
2022-08-23T13:16:52.289Z,28.49
2022-08-23T13:17:59.076Z,28.98
2022-08-23T13:19:20.627Z,28.87
2022-08-23T13:20:22.887Z,29.05
2022-08-23T13:21:24.359Z,29.05
2022-08-23T13:22:25.971Z,28.78
2022-08-23T13:23:27.718Z,28.61
2022-08-23T13:24:38.714Z,29.05
2022-08-23T13:25:40.992Z,28.73
2022-08-23T13:26:42.699Z,27.84
2022-08-23T13:27:44.177Z,27.88
2022-08-23T13:29:00.093Z,27.79
2022-08-23T13:30:01.643Z,27.79
2022-08-23T13:31:06.127Z,27.88
2022-08-23T13:32:07.665Z,26.83
2022-08-23T13:33:12.915Z,27.24
2022-08-23T13:34:32.288Z,27.12
2022-08-23T13:35:33.897Z,27.23
2022-08-23T13:36:36.556Z,26.63
2022-08-23T13:37:38.098Z,26.41
2022-08-23T13:38:39.838Z,26.99
2022-08-23T13:39:44.346Z,27.04
2022-08-23T13:40:54.944Z,26.76
2022-08-23T13:41:56.459Z,26.93
2022-08-23T13:43:01.534Z,26.73
2022-08-23T13:44:06.669Z,26.75
2022-08-23T13:45:14.227Z,27.02
2022-08-23T13:46:22.344Z,26.63
2022-08-23T13:47:24.992Z,26.43
2022-08-23T13:48:30.645Z,25.83
2022-08-23T13:49:32.190Z,26.31
2022-08-23T13:50:34.532Z,25.96
2022-08-23T13:51:38.534Z,26.24
2022-08-23T13:53:03.167Z,26.71
2022-08-23T13:54:06.132Z,26.44
2022-08-23T13:55:07.743Z,26.71
2022-08-23T13:56:09.314Z,26.90
2022-08-23T13:57:11.890Z,26.97
2022-08-23T13:58:14.334Z,26.70
2022-08-23T13:59:35.883Z,26.57
2022-08-23T14:00:37.410Z,26.95
2022-08-23T14:01:38.952Z,27.26
2022-08-23T14:02:40.639Z,27.53
2022-08-23T14:03:42.221Z,27.64
2022-08-23T14:04:43.912Z,27.43
2022-08-23T14:05:45.428Z,26.36
2022-08-23T14:06:48.690Z,26.31
2022-08-23T14:07:52.900Z,26.71
2022-08-23T14:08:54.429Z,26.82
2022-08-23T14:09:57.298Z,26.87
2022-08-23T14:10:58.792Z,26.75
2022-08-23T14:12:03.053Z,26.85
2022-08-23T14:13:06.798Z,26.78
2022-08-23T14:14:08.327Z,26.62
2022-08-23T14:15:10.018Z,26.29
2022-08-23T14:17:34.970Z,26.48